sensor_id;sensor_type;location;lat;lon;timestamp;P1;durP1;ratioP1;P2;durP2;ratioP2
20621;SDS011;10470;42.670;23.354;2023-07-13T00:00:15;7.17;;;5.17;;
20621;SDS011;10470;42.670;23.354;2023-07-13T00:02:46;7.60;;;5.23;;
20621;SDS011;10470;42.670;23.354;2023-07-13T00:05:17;8.47;;;5.47;;
20621;SDS011;10470;42.670;23.354;2023-07-13T00:07:45;9.73;;;5.50;;
20621;SDS011;10470;42.670;23.354;2023-07-13T00:10:16;15.33;;;5.00;;
20621;SDS011;10470;42.670;23.354;2023-07-13T00:12:48;5.83;;;5.00;;
20621;SDS011;10470;42.670;23.354;2023-07-13T00:15:24;7.33;;;5.00;;
20621;SDS011;10470;42.670;23.354;2023-07-13T00:17:55;7.03;;;4.77;;
20621;SDS011;10470;42.670;23.354;2023-07-13T00:20:25;7.07;;;5.33;;
20621;SDS011;10470;42.670;23.354;2023-07-13T00:22:57;8.97;;;5.70;;
20621;SDS011;10470;42.670;23.354;2023-07-13T00:25:29;9.57;;;5.53;;
20621;SDS011;10470;42.670;23.354;2023-07-13T00:28:00;8.33;;;4.90;;
20621;SDS011;10470;42.670;23.354;2023-07-13T00:30:28;6.70;;;4.80;;
20621;SDS011;10470;42.670;23.354;2023-07-13T00:33:00;6.27;;;5.07;;
20621;SDS011;10470;42.670;23.354;2023-07-13T00:35:31;9.43;;;4.90;;
20621;SDS011;10470;42.670;23.354;2023-07-13T00:38:02;7.97;;;5.57;;
20621;SDS011;10470;42.670;23.354;2023-07-13T00:40:33;8.93;;;5.60;;
20621;SDS011;10470;42.670;23.354;2023-07-13T00:43:08;7.03;;;5.27;;
20621;SDS011;10470;42.670;23.354;2023-07-13T00:48:17;9.83;;;5.50;;
20621;SDS011;10470;42.670;23.354;2023-07-13T00:50:52;8.13;;;5.60;;
20621;SDS011;10470;42.670;23.354;2023-07-13T00:53:25;6.33;;;5.37;;
20621;SDS011;10470;42.670;23.354;2023-07-13T00:55:55;8.07;;;5.30;;
20621;SDS011;10470;42.670;23.354;2023-07-13T00:58:26;9.93;;;5.63;;
20621;SDS011;10470;42.670;23.354;2023-07-13T01:00:56;7.40;;;5.33;;
20621;SDS011;10470;42.670;23.354;2023-07-13T01:03:26;8.33;;;5.53;;
20621;SDS011;10470;42.670;23.354;2023-07-13T01:05:56;7.57;;;5.60;;
20621;SDS011;10470;42.670;23.354;2023-07-13T01:08:26;8.57;;;5.70;;
20621;SDS011;10470;42.670;23.354;2023-07-13T01:10:57;9.10;;;5.50;;
20621;SDS011;10470;42.670;23.354;2023-07-13T01:13:26;7.83;;;5.63;;
20621;SDS011;10470;42.670;23.354;2023-07-13T01:15:57;7.87;;;5.53;;
20621;SDS011;10470;42.670;23.354;2023-07-13T01:18:30;8.13;;;5.53;;
20621;SDS011;10470;42.670;23.354;2023-07-13T01:21:03;12.13;;;5.87;;
20621;SDS011;10470;42.670;23.354;2023-07-13T01:23:35;8.97;;;5.40;;
20621;SDS011;10470;42.670;23.354;2023-07-13T01:26:05;9.57;;;6.00;;
20621;SDS011;10470;42.670;23.354;2023-07-13T01:28:35;9.33;;;5.83;;
20621;SDS011;10470;42.670;23.354;2023-07-13T01:31:06;8.07;;;5.70;;
20621;SDS011;10470;42.670;23.354;2023-07-13T01:33:39;6.70;;;5.10;;
20621;SDS011;10470;42.670;23.354;2023-07-13T01:36:11;6.43;;;5.50;;
20621;SDS011;10470;42.670;23.354;2023-07-13T01:38:41;8.63;;;5.53;;
20621;SDS011;10470;42.670;23.354;2023-07-13T01:41:11;9.63;;;5.53;;
20621;SDS011;10470;42.670;23.354;2023-07-13T01:43:42;8.97;;;6.10;;
20621;SDS011;10470;42.670;23.354;2023-07-13T01:46:12;10.00;;;6.17;;
20621;SDS011;10470;42.670;23.354;2023-07-13T01:48:42;8.73;;;5.50;;
20621;SDS011;10470;42.670;23.354;2023-07-13T01:51:13;7.63;;;5.50;;
20621;SDS011;10470;42.670;23.354;2023-07-13T01:53:44;8.67;;;5.57;;
20621;SDS011;10470;42.670;23.354;2023-07-13T01:56:14;6.53;;;5.77;;
20621;SDS011;10470;42.670;23.354;2023-07-13T01:58:45;8.17;;;6.00;;
20621;SDS011;10470;42.670;23.354;2023-07-13T02:01:15;9.73;;;5.40;;
20621;SDS011;10470;42.670;23.354;2023-07-13T02:03:46;6.47;;;5.57;;
20621;SDS011;10470;42.670;23.354;2023-07-13T02:06:17;8.70;;;5.20;;
20621;SDS011;10470;42.670;23.354;2023-07-13T02:08:47;6.83;;;5.50;;
20621;SDS011;10470;42.670;23.354;2023-07-13T02:11:17;7.93;;;5.93;;
20621;SDS011;10470;42.670;23.354;2023-07-13T02:13:48;6.97;;;5.83;;
20621;SDS011;10470;42.670;23.354;2023-07-13T02:16:18;6.33;;;5.60;;
20621;SDS011;10470;42.670;23.354;2023-07-13T02:18:49;8.03;;;6.00;;
20621;SDS011;10470;42.670;23.354;2023-07-13T02:21:20;8.10;;;5.77;;
20621;SDS011;10470;42.670;23.354;2023-07-13T02:23:50;8.40;;;5.90;;
20621;SDS011;10470;42.670;23.354;2023-07-13T02:26:20;6.60;;;5.00;;
20621;SDS011;10470;42.670;23.354;2023-07-13T02:28:51;8.80;;;6.40;;
20621;SDS011;10470;42.670;23.354;2023-07-13T02:31:22;8.23;;;5.90;;
20621;SDS011;10470;42.670;23.354;2023-07-13T02:33:52;8.37;;;5.43;;
20621;SDS011;10470;42.670;23.354;2023-07-13T02:36:23;8.13;;;5.83;;
20621;SDS011;10470;42.670;23.354;2023-07-13T02:38:54;8.43;;;5.70;;
20621;SDS011;10470;42.670;23.354;2023-07-13T02:41:24;8.63;;;6.17;;
20621;SDS011;10470;42.670;23.354;2023-07-13T02:43:55;8.33;;;6.53;;
20621;SDS011;10470;42.670;23.354;2023-07-13T02:46:33;8.87;;;6.03;;
20621;SDS011;10470;42.670;23.354;2023-07-13T02:49:03;9.87;;;6.33;;
20621;SDS011;10470;42.670;23.354;2023-07-13T02:51:33;8.10;;;6.37;;
20621;SDS011;10470;42.670;23.354;2023-07-13T02:54:04;8.70;;;5.87;;
20621;SDS011;10470;42.670;23.354;2023-07-13T02:56:35;8.97;;;6.20;;
20621;SDS011;10470;42.670;23.354;2023-07-13T02:59:05;8.67;;;6.53;;
20621;SDS011;10470;42.670;23.354;2023-07-13T03:01:36;8.73;;;6.20;;
20621;SDS011;10470;42.670;23.354;2023-07-13T03:04:07;9.17;;;6.97;;
20621;SDS011;10470;42.670;23.354;2023-07-13T03:06:37;10.03;;;6.70;;
20621;SDS011;10470;42.670;23.354;2023-07-13T03:09:07;7.67;;;5.90;;
20621;SDS011;10470;42.670;23.354;2023-07-13T03:11:38;9.73;;;7.00;;
20621;SDS011;10470;42.670;23.354;2023-07-13T03:14:08;7.80;;;5.97;;
20621;SDS011;10470;42.670;23.354;2023-07-13T03:16:39;9.57;;;6.73;;
20621;SDS011;10470;42.670;23.354;2023-07-13T03:19:10;8.40;;;6.90;;
20621;SDS011;10470;42.670;23.354;2023-07-13T03:21:40;7.17;;;5.93;;
20621;SDS011;10470;42.670;23.354;2023-07-13T03:24:10;8.90;;;6.30;;
20621;SDS011;10470;42.670;23.354;2023-07-13T03:26:42;10.90;;;7.17;;
20621;SDS011;10470;42.670;23.354;2023-07-13T03:29:12;9.00;;;6.70;;
20621;SDS011;10470;42.670;23.354;2023-07-13T03:31:45;7.63;;;6.67;;
20621;SDS011;10470;42.670;23.354;2023-07-13T03:34:16;7.97;;;6.40;;
20621;SDS011;10470;42.670;23.354;2023-07-13T03:36:47;11.30;;;7.43;;
20621;SDS011;10470;42.670;23.354;2023-07-13T03:39:19;9.97;;;6.83;;
20621;SDS011;10470;42.670;23.354;2023-07-13T03:41:49;7.23;;;6.50;;
20621;SDS011;10470;42.670;23.354;2023-07-13T03:44:21;9.00;;;6.33;;
20621;SDS011;10470;42.670;23.354;2023-07-13T03:46:52;9.10;;;6.57;;
20621;SDS011;10470;42.670;23.354;2023-07-13T03:49:22;7.77;;;5.87;;
20621;SDS011;10470;42.670;23.354;2023-07-13T03:51:51;8.57;;;6.57;;
20621;SDS011;10470;42.670;23.354;2023-07-13T03:54:22;12.07;;;7.00;;
20621;SDS011;10470;42.670;23.354;2023-07-13T03:56:53;9.40;;;6.87;;
20621;SDS011;10470;42.670;23.354;2023-07-13T03:59:24;9.40;;;6.77;;
20621;SDS011;10470;42.670;23.354;2023-07-13T04:01:55;11.43;;;7.67;;
20621;SDS011;10470;42.670;23.354;2023-07-13T04:04:26;9.77;;;7.37;;
20621;SDS011;10470;42.670;23.354;2023-07-13T04:06:57;9.97;;;7.73;;
20621;SDS011;10470;42.670;23.354;2023-07-13T04:09:28;10.50;;;7.60;;
20621;SDS011;10470;42.670;23.354;2023-07-13T04:11:59;9.93;;;7.77;;
20621;SDS011;10470;42.670;23.354;2023-07-13T04:14:27;10.03;;;7.73;;
20621;SDS011;10470;42.670;23.354;2023-07-13T04:16:58;12.63;;;8.63;;
20621;SDS011;10470;42.670;23.354;2023-07-13T04:19:29;18.67;;;14.73;;
20621;SDS011;10470;42.670;23.354;2023-07-13T04:22:00;15.27;;;10.27;;
20621;SDS011;10470;42.670;23.354;2023-07-13T04:24:31;13.80;;;10.27;;
20621;SDS011;10470;42.670;23.354;2023-07-13T04:26:59;13.97;;;9.80;;
20621;SDS011;10470;42.670;23.354;2023-07-13T04:29:31;14.77;;;9.60;;
20621;SDS011;10470;42.670;23.354;2023-07-13T04:32:01;11.73;;;8.77;;
20621;SDS011;10470;42.670;23.354;2023-07-13T04:34:33;9.80;;;8.80;;
20621;SDS011;10470;42.670;23.354;2023-07-13T04:37:04;23.40;;;16.90;;
20621;SDS011;10470;42.670;23.354;2023-07-13T04:39:35;19.40;;;13.10;;
20621;SDS011;10470;42.670;23.354;2023-07-13T04:42:07;11.23;;;8.93;;
20621;SDS011;10470;42.670;23.354;2023-07-13T04:44:38;12.03;;;9.40;;
20621;SDS011;10470;42.670;23.354;2023-07-13T04:47:09;13.03;;;9.53;;
20621;SDS011;10470;42.670;23.354;2023-07-13T04:49:37;11.67;;;8.73;;
20621;SDS011;10470;42.670;23.354;2023-07-13T04:52:09;11.70;;;8.53;;
20621;SDS011;10470;42.670;23.354;2023-07-13T04:54:40;11.83;;;8.83;;
20621;SDS011;10470;42.670;23.354;2023-07-13T04:57:08;12.07;;;8.90;;
20621;SDS011;10470;42.670;23.354;2023-07-13T04:59:39;14.40;;;9.53;;
20621;SDS011;10470;42.670;23.354;2023-07-13T05:02:11;15.03;;;9.20;;
20621;SDS011;10470;42.670;23.354;2023-07-13T05:04:39;14.93;;;9.33;;
20621;SDS011;10470;42.670;23.354;2023-07-13T05:07:10;16.63;;;10.60;;
20621;SDS011;10470;42.670;23.354;2023-07-13T05:09:39;19.93;;;9.97;;
20621;SDS011;10470;42.670;23.354;2023-07-13T05:12:10;11.83;;;9.43;;
20621;SDS011;10470;42.670;23.354;2023-07-13T05:14:41;13.63;;;10.00;;
20621;SDS011;10470;42.670;23.354;2023-07-13T05:17:10;13.90;;;9.83;;
20621;SDS011;10470;42.670;23.354;2023-07-13T05:19:40;10.90;;;9.27;;
20621;SDS011;10470;42.670;23.354;2023-07-13T05:22:09;12.27;;;9.00;;
20621;SDS011;10470;42.670;23.354;2023-07-13T05:24:41;12.20;;;8.50;;
20621;SDS011;10470;42.670;23.354;2023-07-13T05:27:11;10.77;;;9.43;;
20621;SDS011;10470;42.670;23.354;2023-07-13T05:29:43;12.97;;;9.60;;
20621;SDS011;10470;42.670;23.354;2023-07-13T05:32:15;11.87;;;9.73;;
20621;SDS011;10470;42.670;23.354;2023-07-13T05:34:45;16.20;;;9.80;;
20621;SDS011;10470;42.670;23.354;2023-07-13T05:37:14;11.37;;;9.70;;
20621;SDS011;10470;42.670;23.354;2023-07-13T05:39:46;12.53;;;9.37;;
20621;SDS011;10470;42.670;23.354;2023-07-13T05:42:17;10.40;;;9.10;;
20621;SDS011;10470;42.670;23.354;2023-07-13T05:44:45;13.30;;;10.17;;
20621;SDS011;10470;42.670;23.354;2023-07-13T05:47:16;11.33;;;9.50;;
20621;SDS011;10470;42.670;23.354;2023-07-13T05:49:44;11.93;;;9.60;;
20621;SDS011;10470;42.670;23.354;2023-07-13T05:52:16;14.83;;;9.73;;
20621;SDS011;10470;42.670;23.354;2023-07-13T05:54:47;14.07;;;9.83;;
20621;SDS011;10470;42.670;23.354;2023-07-13T05:57:15;13.83;;;10.03;;
20621;SDS011;10470;42.670;23.354;2023-07-13T05:59:46;14.50;;;10.20;;
20621;SDS011;10470;42.670;23.354;2023-07-13T06:02:15;15.40;;;9.40;;
20621;SDS011;10470;42.670;23.354;2023-07-13T06:04:43;14.37;;;9.43;;
20621;SDS011;10470;42.670;23.354;2023-07-13T06:07:14;18.27;;;10.37;;
20621;SDS011;10470;42.670;23.354;2023-07-13T06:09:46;15.10;;;9.17;;
20621;SDS011;10470;42.670;23.354;2023-07-13T06:12:14;17.33;;;10.47;;
20621;SDS011;10470;42.670;23.354;2023-07-13T06:14:46;17.87;;;10.20;;
20621;SDS011;10470;42.670;23.354;2023-07-13T06:17:14;13.60;;;9.53;;
20621;SDS011;10470;42.670;23.354;2023-07-13T06:19:45;14.30;;;9.43;;
20621;SDS011;10470;42.670;23.354;2023-07-13T06:22:16;16.80;;;9.27;;
20621;SDS011;10470;42.670;23.354;2023-07-13T06:24:45;13.73;;;8.57;;
20621;SDS011;10470;42.670;23.354;2023-07-13T06:27:16;12.13;;;8.73;;
20621;SDS011;10470;42.670;23.354;2023-07-13T06:29:45;11.53;;;7.83;;
20621;SDS011;10470;42.670;23.354;2023-07-13T06:32:17;12.07;;;8.00;;
20621;SDS011;10470;42.670;23.354;2023-07-13T06:34:48;10.60;;;8.57;;
20621;SDS011;10470;42.670;23.354;2023-07-13T06:37:16;13.63;;;9.23;;
20621;SDS011;10470;42.670;23.354;2023-07-13T06:39:47;11.60;;;8.37;;
20621;SDS011;10470;42.670;23.354;2023-07-13T06:42:16;10.43;;;8.07;;
20621;SDS011;10470;42.670;23.354;2023-07-13T06:44:48;19.40;;;8.87;;
20621;SDS011;10470;42.670;23.354;2023-07-13T06:47:19;12.37;;;8.47;;
20621;SDS011;10470;42.670;23.354;2023-07-13T06:49:50;10.50;;;8.90;;
20621;SDS011;10470;42.670;23.354;2023-07-13T06:52:22;10.47;;;8.20;;
20621;SDS011;10470;42.670;23.354;2023-07-13T06:54:53;13.17;;;8.20;;
20621;SDS011;10470;42.670;23.354;2023-07-13T06:57:22;24.47;;;10.13;;
20621;SDS011;10470;42.670;23.354;2023-07-13T06:59:53;14.03;;;8.43;;
20621;SDS011;10470;42.670;23.354;2023-07-13T07:02:24;14.40;;;9.63;;
20621;SDS011;10470;42.670;23.354;2023-07-13T07:04:53;11.57;;;8.30;;
20621;SDS011;10470;42.670;23.354;2023-07-13T07:07:24;20.17;;;9.10;;
20621;SDS011;10470;42.670;23.354;2023-07-13T07:09:56;16.03;;;8.07;;
20621;SDS011;10470;42.670;23.354;2023-07-13T07:12:24;16.53;;;9.53;;
20621;SDS011;10470;42.670;23.354;2023-07-13T07:14:52;10.70;;;8.17;;
20621;SDS011;10470;42.670;23.354;2023-07-13T07:17:21;11.50;;;8.53;;
20621;SDS011;10470;42.670;23.354;2023-07-13T07:19:52;11.53;;;8.43;;
20621;SDS011;10470;42.670;23.354;2023-07-13T07:22:24;12.03;;;8.47;;
20621;SDS011;10470;42.670;23.354;2023-07-13T07:24:56;10.93;;;8.50;;
20621;SDS011;10470;42.670;23.354;2023-07-13T07:27:27;14.13;;;9.03;;
20621;SDS011;10470;42.670;23.354;2023-07-13T07:29:55;9.67;;;8.67;;
20621;SDS011;10470;42.670;23.354;2023-07-13T07:32:28;12.50;;;8.47;;
20621;SDS011;10470;42.670;23.354;2023-07-13T07:34:59;13.20;;;8.63;;
20621;SDS011;10470;42.670;23.354;2023-07-13T07:37:27;12.53;;;8.97;;
20621;SDS011;10470;42.670;23.354;2023-07-13T07:39:59;11.00;;;8.53;;
20621;SDS011;10470;42.670;23.354;2023-07-13T07:42:30;13.57;;;8.23;;
20621;SDS011;10470;42.670;23.354;2023-07-13T07:44:59;14.60;;;9.30;;
20621;SDS011;10470;42.670;23.354;2023-07-13T07:47:30;10.50;;;8.33;;
20621;SDS011;10470;42.670;23.354;2023-07-13T07:49:59;13.70;;;8.83;;
20621;SDS011;10470;42.670;23.354;2023-07-13T07:52:28;12.10;;;8.93;;
20621;SDS011;10470;42.670;23.354;2023-07-13T07:54:59;11.90;;;8.67;;
20621;SDS011;10470;42.670;23.354;2023-07-13T07:57:28;11.23;;;8.00;;
20621;SDS011;10470;42.670;23.354;2023-07-13T07:59:59;13.57;;;9.00;;
20621;SDS011;10470;42.670;23.354;2023-07-13T08:02:28;12.90;;;9.23;;
20621;SDS011;10470;42.670;23.354;2023-07-13T08:04:56;13.27;;;8.77;;
20621;SDS011;10470;42.670;23.354;2023-07-13T08:07:24;12.27;;;8.33;;
20621;SDS011;10470;42.670;23.354;2023-07-13T08:09:53;19.57;;;9.70;;
20621;SDS011;10470;42.670;23.354;2023-07-13T08:12:25;14.57;;;9.43;;
20621;SDS011;10470;42.670;23.354;2023-07-13T08:14:53;15.43;;;9.90;;
20621;SDS011;10470;42.670;23.354;2023-07-13T08:17:26;18.20;;;9.47;;
20621;SDS011;10470;42.670;23.354;2023-07-13T08:19:57;14.30;;;9.07;;
20621;SDS011;10470;42.670;23.354;2023-07-13T08:22:26;13.37;;;9.33;;
20621;SDS011;10470;42.670;23.354;2023-07-13T08:24:58;12.20;;;8.73;;
20621;SDS011;10470;42.670;23.354;2023-07-13T08:27:29;16.75;;;9.20;;
20621;SDS011;10470;42.670;23.354;2023-07-13T08:29:58;16.43;;;8.97;;
20621;SDS011;10470;42.670;23.354;2023-07-13T08:32:26;16.13;;;9.30;;
20621;SDS011;10470;42.670;23.354;2023-07-13T08:34:55;14.70;;;9.00;;
20621;SDS011;10470;42.670;23.354;2023-07-13T08:37:24;11.33;;;9.23;;
20621;SDS011;10470;42.670;23.354;2023-07-13T08:39:53;27.00;;;10.43;;
20621;SDS011;10470;42.670;23.354;2023-07-13T08:48:10;11.47;;;8.70;;
20621;SDS011;10470;42.670;23.354;2023-07-13T08:51:04;11.13;;;8.60;;
20621;SDS011;10470;42.670;23.354;2023-07-13T08:53:42;14.63;;;9.17;;
20621;SDS011;10470;42.670;23.354;2023-07-13T08:56:18;12.80;;;8.47;;
20621;SDS011;10470;42.670;23.354;2023-07-13T08:58:50;10.70;;;8.63;;
20621;SDS011;10470;42.670;23.354;2023-07-13T09:01:31;13.35;;;8.98;;
20621;SDS011;10470;42.670;23.354;2023-07-13T09:04:15;10.52;;;8.50;;
20621;SDS011;10470;42.670;23.354;2023-07-13T09:09:27;13.27;;;9.33;;
20621;SDS011;10470;42.670;23.354;2023-07-13T09:15:21;14.38;;;9.35;;
20621;SDS011;10470;42.670;23.354;2023-07-13T09:17:57;10.90;;;8.93;;
20621;SDS011;10470;42.670;23.354;2023-07-13T09:20:34;12.02;;;8.88;;
20621;SDS011;10470;42.670;23.354;2023-07-13T09:23:10;11.63;;;9.07;;
20621;SDS011;10470;42.670;23.354;2023-07-13T09:25:49;15.85;;;8.90;;
20621;SDS011;10470;42.670;23.354;2023-07-13T09:28:29;12.98;;;9.13;;
20621;SDS011;10470;42.670;23.354;2023-07-13T09:31:05;16.83;;;9.43;;
20621;SDS011;10470;42.670;23.354;2023-07-13T09:33:40;13.57;;;9.05;;
20621;SDS011;10470;42.670;23.354;2023-07-13T09:36:33;15.60;;;8.85;;
20621;SDS011;10470;42.670;23.354;2023-07-13T09:42:20;15.63;;;9.07;;
20621;SDS011;10470;42.670;23.354;2023-07-13T09:44:51;13.65;;;9.10;;
20621;SDS011;10470;42.670;23.354;2023-07-13T09:47:27;18.07;;;9.37;;
20621;SDS011;10470;42.670;23.354;2023-07-13T09:50:00;13.65;;;9.45;;
20621;SDS011;10470;42.670;23.354;2023-07-13T09:52:42;11.88;;;9.27;;
20621;SDS011;10470;42.670;23.354;2023-07-13T09:55:24;10.90;;;8.57;;
20621;SDS011;10470;42.670;23.354;2023-07-13T09:57:56;13.73;;;8.68;;
20621;SDS011;10470;42.670;23.354;2023-07-13T10:00:27;17.27;;;9.40;;
20621;SDS011;10470;42.670;23.354;2023-07-13T10:02:59;10.68;;;8.90;;
20621;SDS011;10470;42.670;23.354;2023-07-13T10:05:37;15.98;;;10.68;;
20621;SDS011;10470;42.670;23.354;2023-07-13T10:08:26;15.60;;;9.23;;
20621;SDS011;10470;42.670;23.354;2023-07-13T10:11:00;12.30;;;8.60;;
20621;SDS011;10470;42.670;23.354;2023-07-13T10:13:41;13.40;;;8.88;;
20621;SDS011;10470;42.670;23.354;2023-07-13T10:16:12;22.77;;;10.60;;
20621;SDS011;10470;42.670;23.354;2023-07-13T10:18:43;28.10;;;9.73;;
20621;SDS011;10470;42.670;23.354;2023-07-13T10:21:18;11.13;;;8.20;;
20621;SDS011;10470;42.670;23.354;2023-07-13T10:24:33;13.73;;;8.80;;
20621;SDS011;10470;42.670;23.354;2023-07-13T10:27:03;12.50;;;8.90;;
20621;SDS011;10470;42.670;23.354;2023-07-13T10:29:50;13.95;;;8.50;;
20621;SDS011;10470;42.670;23.354;2023-07-13T10:32:26;14.77;;;8.20;;
20621;SDS011;10470;42.670;23.354;2023-07-13T10:34:54;11.88;;;7.57;;
20621;SDS011;10470;42.670;23.354;2023-07-13T10:37:29;14.32;;;7.88;;
20621;SDS011;10470;42.670;23.354;2023-07-13T10:40:11;9.55;;;7.00;;
20621;SDS011;10470;42.670;23.354;2023-07-13T10:42:55;11.13;;;5.80;;
20621;SDS011;10470;42.670;23.354;2023-07-13T10:45:33;6.80;;;5.15;;
20621;SDS011;10470;42.670;23.354;2023-07-13T10:48:08;8.25;;;5.05;;
20621;SDS011;10470;42.670;23.354;2023-07-13T10:50:43;9.55;;;4.93;;
20621;SDS011;10470;42.670;23.354;2023-07-13T10:53:17;5.28;;;4.68;;
20621;SDS011;10470;42.670;23.354;2023-07-13T10:58:50;9.90;;;5.05;;
20621;SDS011;10470;42.670;23.354;2023-07-13T11:01:53;6.95;;;4.70;;
20621;SDS011;10470;42.670;23.354;2023-07-13T11:04:39;6.95;;;4.90;;
20621;SDS011;10470;42.670;23.354;2023-07-13T11:07:24;8.80;;;5.00;;
20621;SDS011;10470;42.670;23.354;2023-07-13T11:10:03;7.32;;;5.18;;
20621;SDS011;10470;42.670;23.354;2023-07-13T11:12:49;7.80;;;4.82;;
20621;SDS011;10470;42.670;23.354;2023-07-13T11:15:42;6.50;;;4.57;;
20621;SDS011;10470;42.670;23.354;2023-07-13T11:18:21;7.40;;;4.43;;
20621;SDS011;10470;42.670;23.354;2023-07-13T11:20:53;8.60;;;5.20;;
20621;SDS011;10470;42.670;23.354;2023-07-13T11:23:44;8.52;;;5.13;;
20621;SDS011;10470;42.670;23.354;2023-07-13T11:32:01;7.80;;;4.93;;
20621;SDS011;10470;42.670;23.354;2023-07-13T11:34:51;9.20;;;5.32;;
20621;SDS011;10470;42.670;23.354;2023-07-13T11:37:20;10.20;;;5.28;;
20621;SDS011;10470;42.670;23.354;2023-07-13T11:39:53;9.45;;;4.95;;
20621;SDS011;10470;42.670;23.354;2023-07-13T11:42:22;8.95;;;5.30;;
20621;SDS011;10470;42.670;23.354;2023-07-13T11:44:52;9.32;;;5.65;;
20621;SDS011;10470;42.670;23.354;2023-07-13T11:47:24;9.25;;;5.30;;
20621;SDS011;10470;42.670;23.354;2023-07-13T11:49:56;8.18;;;5.40;;
20621;SDS011;10470;42.670;23.354;2023-07-13T11:52:32;8.77;;;5.60;;
20621;SDS011;10470;42.670;23.354;2023-07-13T11:55:13;6.43;;;5.30;;
20621;SDS011;10470;42.670;23.354;2023-07-13T11:57:48;10.43;;;5.88;;
20621;SDS011;10470;42.670;23.354;2023-07-13T12:00:22;7.35;;;5.13;;
20621;SDS011;10470;42.670;23.354;2023-07-13T12:02:56;9.45;;;5.15;;
20621;SDS011;10470;42.670;23.354;2023-07-13T12:05:28;10.27;;;5.90;;
20621;SDS011;10470;42.670;23.354;2023-07-13T12:08:07;9.10;;;5.50;;
20621;SDS011;10470;42.670;23.354;2023-07-13T12:10:41;6.88;;;5.20;;
20621;SDS011;10470;42.670;23.354;2023-07-13T12:13:11;7.20;;;5.10;;
20621;SDS011;10470;42.670;23.354;2023-07-13T12:15:43;9.98;;;5.75;;
20621;SDS011;10470;42.670;23.354;2023-07-13T12:18:20;10.90;;;5.28;;
20621;SDS011;10470;42.670;23.354;2023-07-13T12:20:57;11.25;;;5.47;;
20621;SDS011;10470;42.670;23.354;2023-07-13T12:23:31;7.07;;;5.18;;
20621;SDS011;10470;42.670;23.354;2023-07-13T12:26:03;11.20;;;4.85;;
20621;SDS011;10470;42.670;23.354;2023-07-13T12:28:37;9.20;;;5.05;;
20621;SDS011;10470;42.670;23.354;2023-07-13T12:37:02;7.13;;;5.18;;
20621;SDS011;10470;42.670;23.354;2023-07-13T12:39:33;5.93;;;5.30;;
20621;SDS011;10470;42.670;23.354;2023-07-13T12:45:20;9.40;;;5.95;;
20621;SDS011;10470;42.670;23.354;2023-07-13T12:47:56;9.90;;;6.28;;
20621;SDS011;10470;42.670;23.354;2023-07-13T12:50:39;11.43;;;5.38;;
20621;SDS011;10470;42.670;23.354;2023-07-13T12:53:13;7.40;;;5.10;;
20621;SDS011;10470;42.670;23.354;2023-07-13T12:55:47;11.35;;;5.53;;
20621;SDS011;10470;42.670;23.354;2023-07-13T12:58:24;7.97;;;5.88;;
20621;SDS011;10470;42.670;23.354;2023-07-13T13:00:56;12.43;;;6.75;;
20621;SDS011;10470;42.670;23.354;2023-07-13T13:03:33;12.20;;;7.10;;
20621;SDS011;10470;42.670;23.354;2023-07-13T13:06:18;10.05;;;6.82;;
20621;SDS011;10470;42.670;23.354;2023-07-13T13:08:56;10.90;;;6.93;;
20621;SDS011;10470;42.670;23.354;2023-07-13T13:11:28;9.52;;;6.88;;
20621;SDS011;10470;42.670;23.354;2023-07-13T13:14:01;11.88;;;7.55;;
20621;SDS011;10470;42.670;23.354;2023-07-13T13:16:31;11.35;;;6.32;;
20621;SDS011;10470;42.670;23.354;2023-07-13T13:19:14;10.98;;;6.43;;
20621;SDS011;10470;42.670;23.354;2023-07-13T13:21:45;10.32;;;7.13;;
20621;SDS011;10470;42.670;23.354;2023-07-13T13:24:16;11.30;;;7.20;;
20621;SDS011;10470;42.670;23.354;2023-07-13T13:26:48;14.88;;;6.82;;
20621;SDS011;10470;42.670;23.354;2023-07-13T13:29:23;9.85;;;7.07;;
20621;SDS011;10470;42.670;23.354;2023-07-13T13:31:55;13.95;;;7.18;;
20621;SDS011;10470;42.670;23.354;2023-07-13T13:34:25;8.75;;;6.35;;
20621;SDS011;10470;42.670;23.354;2023-07-13T13:36:55;13.50;;;7.57;;
20621;SDS011;10470;42.670;23.354;2023-07-13T13:39:28;11.10;;;6.82;;
20621;SDS011;10470;42.670;23.354;2023-07-13T13:42:02;9.70;;;6.75;;
20621;SDS011;10470;42.670;23.354;2023-07-13T13:44:33;12.43;;;7.50;;
20621;SDS011;10470;42.670;23.354;2023-07-13T13:47:03;12.82;;;7.10;;
20621;SDS011;10470;42.670;23.354;2023-07-13T13:49:34;12.63;;;6.68;;
20621;SDS011;10470;42.670;23.354;2023-07-13T13:52:04;12.55;;;6.53;;
20621;SDS011;10470;42.670;23.354;2023-07-13T13:54:34;10.38;;;7.05;;
20621;SDS011;10470;42.670;23.354;2023-07-13T13:57:05;12.98;;;6.90;;
20621;SDS011;10470;42.670;23.354;2023-07-13T13:59:34;9.68;;;6.90;;
20621;SDS011;10470;42.670;23.354;2023-07-13T14:02:25;11.23;;;6.57;;
20621;SDS011;10470;42.670;23.354;2023-07-13T14:04:58;13.32;;;7.00;;
20621;SDS011;10470;42.670;23.354;2023-07-13T14:07:31;11.90;;;7.57;;
20621;SDS011;10470;42.670;23.354;2023-07-13T14:10:01;10.13;;;6.93;;
20621;SDS011;10470;42.670;23.354;2023-07-13T14:12:32;14.45;;;7.20;;
20621;SDS011;10470;42.670;23.354;2023-07-13T14:15:01;10.75;;;6.88;;
20621;SDS011;10470;42.670;23.354;2023-07-13T14:17:32;11.57;;;6.80;;
20621;SDS011;10470;42.670;23.354;2023-07-13T14:20:02;13.90;;;6.40;;
20621;SDS011;10470;42.670;23.354;2023-07-13T14:22:33;12.32;;;6.43;;
20621;SDS011;10470;42.670;23.354;2023-07-13T14:25:03;13.60;;;7.35;;
20621;SDS011;10470;42.670;23.354;2023-07-13T14:27:34;13.60;;;7.40;;
20621;SDS011;10470;42.670;23.354;2023-07-13T14:30:11;10.65;;;6.22;;
20621;SDS011;10470;42.670;23.354;2023-07-13T14:32:41;12.70;;;5.72;;
20621;SDS011;10470;42.670;23.354;2023-07-13T14:35:13;11.43;;;6.35;;
20621;SDS011;10470;42.670;23.354;2023-07-13T14:37:43;12.13;;;5.32;;
20621;SDS011;10470;42.670;23.354;2023-07-13T14:42:43;11.23;;;5.20;;
20621;SDS011;10470;42.670;23.354;2023-07-13T14:45:16;10.05;;;5.07;;
20621;SDS011;10470;42.670;23.354;2023-07-13T14:47:50;11.20;;;5.80;;
20621;SDS011;10470;42.670;23.354;2023-07-13T14:50:30;11.20;;;5.63;;
20621;SDS011;10470;42.670;23.354;2023-07-13T14:53:00;11.55;;;5.90;;
20621;SDS011;10470;42.670;23.354;2023-07-13T14:55:31;9.35;;;5.15;;
20621;SDS011;10470;42.670;23.354;2023-07-13T14:58:02;11.02;;;5.20;;
20621;SDS011;10470;42.670;23.354;2023-07-13T15:00:32;11.25;;;5.53;;
20621;SDS011;10470;42.670;23.354;2023-07-13T15:03:03;13.55;;;5.50;;
20621;SDS011;10470;42.670;23.354;2023-07-13T15:05:36;13.57;;;5.47;;
20621;SDS011;10470;42.670;23.354;2023-07-13T15:08:07;11.38;;;6.13;;
20621;SDS011;10470;42.670;23.354;2023-07-13T15:10:42;9.32;;;5.85;;
20621;SDS011;10470;42.670;23.354;2023-07-13T15:13:16;9.35;;;5.63;;
20621;SDS011;10470;42.670;23.354;2023-07-13T15:15:51;8.85;;;5.13;;
20621;SDS011;10470;42.670;23.354;2023-07-13T15:18:22;10.43;;;5.43;;
20621;SDS011;10470;42.670;23.354;2023-07-13T15:20:55;7.75;;;5.07;;
20621;SDS011;10470;42.670;23.354;2023-07-13T15:23:27;7.18;;;4.93;;
20621;SDS011;10470;42.670;23.354;2023-07-13T15:25:56;10.88;;;5.40;;
20621;SDS011;10470;42.670;23.354;2023-07-13T15:28:27;7.88;;;5.20;;
20621;SDS011;10470;42.670;23.354;2023-07-13T15:30:58;8.27;;;5.18;;
20621;SDS011;10470;42.670;23.354;2023-07-13T15:33:29;7.57;;;5.35;;